createdAt,value
2023-03-30T00:00:05.140Z,1001.85
2023-03-30T00:01:04.820Z,1001.81
2023-03-30T00:02:04.724Z,1001.75
2023-03-30T00:03:04.837Z,1001.69
2023-03-30T00:04:04.848Z,1001.70
2023-03-30T00:05:04.863Z,1001.67
2023-03-30T00:06:04.628Z,1001.66
2023-03-30T00:07:04.626Z,1001.63
2023-03-30T00:08:04.649Z,1001.62
2023-03-30T00:09:04.616Z,1001.61
2023-03-30T00:10:04.621Z,1001.54
2023-03-30T00:11:04.760Z,1001.53
2023-03-30T00:12:04.571Z,1001.49
2023-03-30T00:13:04.583Z,1001.46
2023-03-30T00:14:04.552Z,1001.47
2023-03-30T00:15:04.573Z,1001.50
2023-03-30T00:16:04.565Z,1001.50
2023-03-30T00:17:04.536Z,1001.53
2023-03-30T00:18:04.573Z,1001.56
2023-03-30T00:19:04.517Z,1001.55
2023-03-30T00:20:04.565Z,1001.48
2023-03-30T00:21:04.826Z,1001.46
2023-03-30T00:22:04.625Z,1001.48
2023-03-30T00:23:04.501Z,1001.53
2023-03-30T00:24:04.491Z,1001.52
2023-03-30T00:25:05.005Z,1001.50
2023-03-30T00:26:04.508Z,1001.48
2023-03-30T00:27:04.473Z,1001.46
2023-03-30T00:28:04.414Z,1001.46
2023-03-30T00:29:04.436Z,1001.44
2023-03-30T00:30:04.384Z,1001.41
2023-03-30T00:31:04.653Z,1001.39
2023-03-30T00:32:04.421Z,1001.38
2023-03-30T00:33:04.460Z,1001.32
2023-03-30T00:34:04.559Z,1001.25
2023-03-30T00:35:04.353Z,1001.27
2023-03-30T00:36:04.611Z,1001.26
2023-03-30T00:37:04.321Z,1001.25
2023-03-30T00:38:04.330Z,1001.21
2023-03-30T00:39:04.331Z,1001.18
2023-03-30T00:40:04.346Z,1001.17
2023-03-30T00:41:04.703Z,1001.19
2023-03-30T00:42:04.285Z,1001.21
2023-03-30T00:43:04.301Z,1001.24
2023-03-30T00:44:04.275Z,1001.26
2023-03-30T00:45:04.265Z,1001.28
2023-03-30T00:46:04.265Z,1001.28
2023-03-30T00:47:04.268Z,1001.29
2023-03-30T00:48:04.309Z,1001.33
2023-03-30T00:49:04.285Z,1001.32
2023-03-30T00:50:04.230Z,1001.29
2023-03-30T00:51:04.471Z,1001.28
2023-03-30T00:52:04.162Z,1001.27
2023-03-30T00:53:04.174Z,1001.26
2023-03-30T00:54:04.151Z,1001.23
2023-03-30T00:55:04.214Z,1001.24
2023-03-30T00:56:04.178Z,1001.22
2023-03-30T00:57:04.194Z,1001.19
2023-03-30T00:58:04.227Z,1001.20
2023-03-30T00:59:05.002Z,1001.23
2023-03-30T01:00:04.082Z,1001.23
2023-03-30T01:01:04.377Z,1001.20
2023-03-30T01:02:04.172Z,1001.20
2023-03-30T01:03:04.194Z,1001.21
2023-03-30T01:04:04.059Z,1001.23
2023-03-30T01:05:04.054Z,1001.25
2023-03-30T01:06:04.023Z,1001.25
2023-03-30T01:07:04.026Z,1001.24
2023-03-30T01:08:04.026Z,1001.28
2023-03-30T01:09:04.016Z,1001.32
2023-03-30T01:10:04.020Z,1001.35
2023-03-30T01:11:04.093Z,1001.37
2023-03-30T01:12:03.963Z,1001.37
2023-03-30T01:13:03.994Z,1001.42
2023-03-30T01:14:03.972Z,1001.45
2023-03-30T01:15:03.941Z,1001.48
2023-03-30T01:16:03.969Z,1001.46
2023-03-30T01:17:03.975Z,1001.45
2023-03-30T01:18:03.935Z,1001.43
2023-03-30T01:19:03.958Z,1001.42
2023-03-30T01:20:03.892Z,1001.39
2023-03-30T01:21:04.081Z,1001.33
2023-03-30T01:22:03.850Z,1001.30
2023-03-30T01:23:03.859Z,1001.33
2023-03-30T01:24:03.968Z,1001.36
2023-03-30T01:25:03.849Z,1001.38
2023-03-30T01:26:03.863Z,1001.42
2023-03-30T01:27:03.818Z,1001.42
2023-03-30T01:28:03.820Z,1001.41
2023-03-30T01:29:03.816Z,1001.36
2023-03-30T01:30:03.828Z,1001.35
2023-03-30T01:31:03.911Z,1001.37
2023-03-30T01:32:03.981Z,1001.40
2023-03-30T01:33:03.899Z,1001.47
2023-03-30T01:34:03.927Z,1001.49
2023-03-30T01:35:03.838Z,1001.45
2023-03-30T01:36:03.769Z,1001.39
2023-03-30T01:37:03.725Z,1001.35
2023-03-30T01:38:03.714Z,1001.36
2023-03-30T01:39:03.695Z,1001.35
2023-03-30T01:40:03.702Z,1001.33
2023-03-30T01:41:03.867Z,1001.30
2023-03-30T01:42:03.676Z,1001.34
2023-03-30T01:43:03.667Z,1001.38
2023-03-30T01:44:03.695Z,1001.40
2023-03-30T01:45:03.656Z,1001.39
2023-03-30T01:46:03.685Z,1001.42
2023-03-30T01:47:03.674Z,1001.46
2023-03-30T01:48:03.706Z,1001.50
2023-03-30T01:49:03.636Z,1001.52
2023-03-30T01:50:03.606Z,1001.50
2023-03-30T01:51:03.855Z,1001.45
2023-03-30T01:52:03.583Z,1001.38
2023-03-30T01:53:03.628Z,1001.34
2023-03-30T01:54:03.595Z,1001.38
2023-03-30T01:55:03.553Z,1001.41
2023-03-30T01:56:03.564Z,1001.44
2023-03-30T01:57:03.514Z,1001.45
2023-03-30T01:58:03.590Z,1001.40
2023-03-30T01:59:03.541Z,1001.36
2023-03-30T02:00:03.517Z,1001.34
2023-03-30T02:01:03.666Z,1001.29
2023-03-30T02:02:03.520Z,1001.26
2023-03-30T02:03:03.544Z,1001.28
2023-03-30T02:04:03.556Z,1001.31
2023-03-30T02:05:03.482Z,1001.34
2023-03-30T02:06:03.648Z,1001.38
2023-03-30T02:07:03.412Z,1001.44
2023-03-30T02:08:03.433Z,1001.48
2023-03-30T02:09:03.437Z,1001.48
2023-03-30T02:10:03.389Z,1001.48
2023-03-30T02:11:03.611Z,1001.49
2023-03-30T02:12:03.409Z,1001.46
2023-03-30T02:13:03.352Z,1001.47
2023-03-30T02:14:03.369Z,1001.46
2023-03-30T02:15:03.336Z,1001.45
2023-03-30T02:16:03.397Z,1001.41
2023-03-30T02:17:03.326Z,1001.39
2023-03-30T02:18:03.403Z,1001.40
2023-03-30T02:19:03.332Z,1001.39
2023-03-30T02:20:03.356Z,1001.35
2023-03-30T02:21:03.465Z,1001.32
2023-03-30T02:22:03.279Z,1001.31
2023-03-30T02:23:03.257Z,1001.33
2023-03-30T02:24:03.271Z,1001.31
2023-03-30T02:25:03.247Z,1001.28
2023-03-30T02:26:03.241Z,1001.25
2023-03-30T02:27:03.262Z,1001.21
2023-03-30T02:28:03.191Z,1001.17
2023-03-30T02:29:03.218Z,1001.19
2023-03-30T02:30:03.204Z,1001.23
2023-03-30T02:31:03.353Z,1001.24
2023-03-30T02:32:03.316Z,1001.19
2023-03-30T02:33:03.194Z,1001.13
2023-03-30T02:34:03.183Z,1001.12
2023-03-30T02:35:03.127Z,1001.15
2023-03-30T02:36:03.188Z,1001.16
2023-03-30T02:37:03.113Z,1001.16
2023-03-30T02:38:03.094Z,1001.16
2023-03-30T02:39:03.122Z,1001.16
2023-03-30T02:40:03.095Z,1001.13
2023-03-30T02:41:03.195Z,1001.10
2023-03-30T02:42:03.095Z,1001.08
2023-03-30T02:43:03.097Z,1001.08
2023-03-30T02:44:03.056Z,1001.11
2023-03-30T02:45:03.088Z,1001.17
2023-03-30T02:46:03.059Z,1001.24
2023-03-30T02:47:03.018Z,1001.29
2023-03-30T02:48:03.044Z,1001.31
2023-03-30T02:49:02.996Z,1001.28
2023-03-30T02:50:02.983Z,1001.25
2023-03-30T02:51:03.257Z,1001.25
2023-03-30T02:52:02.993Z,1001.27
2023-03-30T02:53:02.979Z,1001.34
2023-03-30T02:54:02.973Z,1001.42
2023-03-30T02:55:02.980Z,1001.47
2023-03-30T02:56:02.949Z,1001.50
2023-03-30T02:57:03.014Z,1001.48
2023-03-30T02:58:02.916Z,1001.46
2023-03-30T02:59:02.977Z,1001.43
2023-03-30T03:00:02.878Z,1001.35
2023-03-30T03:01:03.322Z,1001.31
2023-03-30T03:02:02.978Z,1001.28
2023-03-30T03:03:02.899Z,1001.30
2023-03-30T03:04:02.868Z,1001.38
2023-03-30T03:05:02.913Z,1001.44
2023-03-30T03:06:02.883Z,1001.50
2023-03-30T03:07:02.854Z,1001.53
2023-03-30T03:08:02.801Z,1001.54
2023-03-30T03:09:02.783Z,1001.55
2023-03-30T03:10:02.804Z,1001.53
2023-03-30T03:11:03.142Z,1001.54
2023-03-30T03:12:02.780Z,1001.53
2023-03-30T03:13:02.762Z,1001.50
2023-03-30T03:14:02.747Z,1001.48
2023-03-30T03:15:02.786Z,1001.50
2023-03-30T03:16:04.264Z,1001.54
2023-03-30T03:17:02.766Z,1001.56
2023-03-30T03:18:02.792Z,1001.58
2023-03-30T03:19:02.742Z,1001.60
2023-03-30T03:20:02.706Z,1001.60
2023-03-30T03:21:02.913Z,1001.62
2023-03-30T03:22:02.782Z,1001.62
2023-03-30T03:23:02.678Z,1001.59
2023-03-30T03:24:02.758Z,1001.55
2023-03-30T03:25:02.703Z,1001.50
2023-03-30T03:26:02.689Z,1001.38
2023-03-30T03:27:02.620Z,1001.26
2023-03-30T03:28:02.606Z,1001.21
2023-03-30T03:29:02.593Z,1001.11
2023-03-30T03:30:02.576Z,1001.10
2023-03-30T03:31:03.045Z,1001.06
2023-03-30T03:32:02.634Z,1000.94
2023-03-30T03:33:02.589Z,1000.81
2023-03-30T03:34:02.606Z,1000.78
2023-03-30T03:35:02.531Z,1000.73
2023-03-30T03:36:02.512Z,1000.68
2023-03-30T03:37:02.546Z,1000.59
2023-03-30T03:38:02.497Z,1000.50
2023-03-30T03:39:02.505Z,1000.38
2023-03-30T03:40:02.536Z,1000.27
2023-03-30T03:41:02.737Z,1000.15
2023-03-30T03:42:03.035Z,1000.04
2023-03-30T03:43:02.446Z,999.93
2023-03-30T03:44:02.460Z,999.86
2023-03-30T03:45:02.524Z,999.81
2023-03-30T03:46:02.457Z,999.72
2023-03-30T03:47:02.478Z,999.69
2023-03-30T03:48:02.447Z,999.72
2023-03-30T03:49:02.397Z,999.74
2023-03-30T03:50:02.396Z,999.76
2023-03-30T03:51:03.424Z,999.83
2023-03-30T03:52:02.382Z,999.85
2023-03-30T03:53:02.409Z,999.88
2023-03-30T03:54:02.351Z,999.92
2023-03-30T03:55:02.339Z,999.90
2023-03-30T03:56:02.369Z,999.84
2023-03-30T03:57:02.392Z,999.86
2023-03-30T03:58:02.335Z,999.86
2023-03-30T03:59:02.294Z,999.89
2023-03-30T04:00:02.272Z,999.91
2023-03-30T04:01:02.655Z,999.92
2023-03-30T04:02:02.302Z,999.93
2023-03-30T04:03:02.375Z,999.92
2023-03-30T04:04:02.263Z,999.90
2023-03-30T04:05:02.333Z,999.88
2023-03-30T04:06:02.248Z,999.87
2023-03-30T04:07:02.199Z,999.88
2023-03-30T04:08:02.237Z,999.91
2023-03-30T04:09:02.200Z,999.94
2023-03-30T04:10:02.177Z,999.92
2023-03-30T04:11:02.558Z,999.89
2023-03-30T04:12:02.182Z,999.87
2023-03-30T04:13:02.253Z,999.87
2023-03-30T04:14:02.168Z,999.87
2023-03-30T04:15:02.181Z,999.87
2023-03-30T04:16:02.192Z,999.86
2023-03-30T04:17:02.106Z,999.86
2023-03-30T04:18:02.125Z,999.89
2023-03-30T04:19:02.106Z,999.93
2023-03-30T04:20:02.193Z,999.99
2023-03-30T04:21:02.304Z,1000.06
2023-03-30T04:22:02.049Z,1000.12
2023-03-30T04:23:02.178Z,1000.15
2023-03-30T04:24:02.060Z,1000.14
2023-03-30T04:25:02.224Z,1000.11
2023-03-30T04:26:02.012Z,1000.10
2023-03-30T04:27:02.024Z,1000.12
2023-03-30T04:28:01.983Z,1000.13
2023-03-30T04:29:01.986Z,1000.12
2023-03-30T04:30:02.078Z,1000.10
2023-03-30T04:31:02.305Z,1000.09
2023-03-30T04:32:01.975Z,1000.09
2023-03-30T04:33:02.014Z,1000.09
2023-03-30T04:34:01.963Z,1000.11
2023-03-30T04:35:01.930Z,1000.13
2023-03-30T04:36:02.059Z,1000.13
2023-03-30T04:37:01.916Z,1000.10
2023-03-30T04:38:02.110Z,1000.08
2023-03-30T04:39:01.919Z,1000.08
2023-03-30T04:40:01.861Z,1000.11
2023-03-30T04:41:02.101Z,1000.13
2023-03-30T04:42:01.835Z,1000.12
2023-03-30T04:43:01.876Z,1000.09
2023-03-30T04:44:01.857Z,1000.05
2023-03-30T04:45:01.795Z,1000.02
2023-03-30T04:46:01.873Z,1000.00
2023-03-30T04:47:01.817Z,1000.00
2023-03-30T04:48:01.853Z,1000.02
2023-03-30T04:49:01.788Z,1000.04
2023-03-30T04:50:01.764Z,1000.06
2023-03-30T04:51:01.864Z,1000.09
2023-03-30T04:52:02.652Z,1000.11
2023-03-30T04:53:01.802Z,1000.13
2023-03-30T04:54:01.730Z,1000.12
2023-03-30T04:55:01.708Z,1000.13
2023-03-30T04:56:01.674Z,1000.13
2023-03-30T04:57:01.730Z,1000.12
2023-03-30T04:58:01.763Z,1000.14
2023-03-30T04:59:01.743Z,1000.14
2023-03-30T05:00:01.729Z,1000.16
2023-03-30T05:01:01.842Z,1000.21
2023-03-30T05:02:01.697Z,1000.19
2023-03-30T05:03:01.781Z,1000.12
2023-03-30T05:04:01.664Z,999.91
2023-03-30T05:05:01.699Z,999.77
2023-03-30T05:06:01.598Z,999.78
2023-03-30T05:07:01.599Z,999.78
2023-03-30T05:08:01.553Z,999.85
2023-03-30T05:09:01.533Z,999.83
2023-03-30T05:10:01.637Z,999.83
2023-03-30T05:11:01.621Z,999.86
2023-03-30T05:12:01.542Z,999.87
2023-03-30T05:13:01.524Z,999.95
2023-03-30T05:14:01.501Z,1000.02
2023-03-30T05:15:01.558Z,1000.07
2023-03-30T05:16:01.569Z,1000.03
2023-03-30T05:17:01.615Z,999.95
2023-03-30T05:18:01.527Z,999.96
2023-03-30T05:19:01.460Z,1000.00
2023-03-30T05:20:01.567Z,999.93
2023-03-30T05:21:01.620Z,999.87
2023-03-30T05:22:01.410Z,999.88
2023-03-30T05:23:01.461Z,999.97
2023-03-30T05:24:01.391Z,999.93
2023-03-30T05:25:01.360Z,999.95
2023-03-30T05:26:01.440Z,999.99
2023-03-30T05:27:01.379Z,1000.02
2023-03-30T05:28:01.426Z,1000.02
2023-03-30T05:29:01.355Z,1000.04
2023-03-30T05:30:01.369Z,1000.03
2023-03-30T05:31:01.434Z,1000.02
2023-03-30T05:32:01.415Z,1000.03
2023-03-30T05:33:01.372Z,1000.12
2023-03-30T05:34:01.319Z,1000.13
2023-03-30T05:35:01.380Z,1000.07
2023-03-30T05:36:01.336Z,1000.12
2023-03-30T05:37:01.284Z,1000.15
2023-03-30T05:38:01.317Z,1000.13
2023-03-30T05:39:01.245Z,1000.10
2023-03-30T05:40:01.281Z,1000.08
2023-03-30T05:41:01.281Z,1000.11
2023-03-30T05:42:02.078Z,1000.07
2023-03-30T05:43:01.378Z,1000.08
2023-03-30T05:44:01.214Z,1000.09
2023-03-30T05:45:01.414Z,1000.12
2023-03-30T05:46:01.287Z,1000.14
2023-03-30T05:47:01.176Z,1000.16
2023-03-30T05:48:01.722Z,1000.18
2023-03-30T05:49:01.200Z,1000.20
2023-03-30T05:50:01.139Z,1000.25
2023-03-30T05:51:02.421Z,1000.25
2023-03-30T05:52:01.138Z,1000.24
2023-03-30T05:53:01.213Z,1000.16
2023-03-30T05:54:01.119Z,1000.11
2023-03-30T05:55:01.150Z,1000.06
2023-03-30T05:56:01.168Z,1000.03
2023-03-30T05:57:01.116Z,1000.09
2023-03-30T05:58:01.099Z,1000.10
2023-03-30T05:59:01.098Z,1000.12
2023-03-30T06:00:01.109Z,1000.12
2023-03-30T06:01:01.052Z,1000.08
2023-03-30T06:02:01.016Z,1000.00
2023-03-30T06:03:01.094Z,999.99
2023-03-30T06:04:01.131Z,1000.01
2023-03-30T06:05:01.127Z,1000.05
2023-03-30T06:06:01.002Z,1000.20
2023-03-30T06:07:01.016Z,1000.29
2023-03-30T06:08:01.001Z,1000.35
2023-03-30T06:09:00.940Z,1000.36
2023-03-30T06:10:00.984Z,1000.33
2023-03-30T06:11:01.017Z,1000.34
2023-03-30T06:12:00.936Z,1000.33
2023-03-30T06:13:00.884Z,1000.35
2023-03-30T06:14:00.978Z,1000.37
2023-03-30T06:15:01.165Z,1000.41
2023-03-30T06:16:03.041Z,1000.38
2023-03-30T06:17:00.910Z,1000.36
2023-03-30T06:18:00.896Z,1000.34
2023-03-30T06:19:00.855Z,1000.36
2023-03-30T06:20:00.825Z,1000.28
2023-03-30T06:21:00.853Z,1000.23
2023-03-30T06:22:01.010Z,1000.18
2023-03-30T06:23:00.901Z,1000.18
2023-03-30T06:24:00.838Z,1000.18
2023-03-30T06:25:00.830Z,1000.19
2023-03-30T06:26:00.818Z,1000.30
2023-03-30T06:27:00.770Z,1000.37
2023-03-30T06:28:00.740Z,1000.46
2023-03-30T06:29:00.890Z,1000.51
2023-03-30T06:30:00.836Z,1000.41
2023-03-30T06:31:00.760Z,1000.32
2023-03-30T06:32:00.751Z,1000.26
2023-03-30T06:33:00.997Z,1000.16
2023-03-30T06:34:00.874Z,1000.05
2023-03-30T06:35:00.664Z,1000.03
2023-03-30T06:36:00.684Z,1000.10
2023-03-30T06:37:00.738Z,1000.13
2023-03-30T06:38:00.752Z,1000.23
2023-03-30T06:39:00.624Z,1000.31
2023-03-30T06:40:00.910Z,1000.33
2023-03-30T06:41:00.698Z,1000.30
2023-03-30T06:42:00.626Z,1000.24
2023-03-30T06:43:00.621Z,1000.17
2023-03-30T06:44:00.598Z,1000.10
2023-03-30T06:45:00.593Z,1000.07
2023-03-30T06:46:00.669Z,1000.03
2023-03-30T06:47:00.556Z,999.99
2023-03-30T06:48:00.610Z,999.94
2023-03-30T06:49:00.555Z,999.90
2023-03-30T06:50:00.569Z,999.88
2023-03-30T06:51:00.512Z,999.88
2023-03-30T06:52:03.930Z,999.93
2023-03-30T06:53:00.544Z,999.89
2023-03-30T06:54:00.621Z,999.84
2023-03-30T06:55:00.559Z,999.77
2023-03-30T06:56:00.534Z,999.74
2023-03-30T06:57:00.507Z,999.78
2023-03-30T06:58:00.466Z,999.95
2023-03-30T06:59:00.490Z,999.98
2023-03-30T07:00:00.448Z,1000.01
2023-03-30T07:01:00.447Z,999.95
2023-03-30T07:02:00.425Z,999.93
2023-03-30T07:03:00.485Z,999.91
2023-03-30T07:04:00.491Z,999.79
2023-03-30T07:05:00.394Z,999.82
2023-03-30T07:06:00.394Z,999.83
2023-03-30T07:07:00.417Z,999.86
2023-03-30T07:08:00.337Z,999.89
2023-03-30T07:09:00.363Z,999.90
2023-03-30T07:10:00.384Z,999.89
2023-03-30T07:11:00.374Z,999.88
2023-03-30T07:12:00.309Z,999.90
2023-03-30T07:13:00.294Z,999.93
2023-03-30T07:14:00.340Z,999.93
2023-03-30T07:15:00.268Z,999.95
2023-03-30T07:16:00.257Z,999.95
2023-03-30T07:17:00.318Z,999.98
2023-03-30T07:18:00.310Z,1000.01
2023-03-30T07:19:00.282Z,999.99
2023-03-30T07:20:00.324Z,999.94
2023-03-30T07:21:00.657Z,999.89
2023-03-30T07:22:00.212Z,999.79
2023-03-30T07:23:00.191Z,999.71
2023-03-30T07:24:00.206Z,999.67
2023-03-30T07:25:00.216Z,999.67
2023-03-30T07:26:00.226Z,999.72
2023-03-30T07:27:00.192Z,999.85
2023-03-30T07:28:00.225Z,1000.03
2023-03-30T07:29:00.161Z,1000.20
2023-03-30T07:30:10.259Z,1000.27
2023-03-30T07:31:00.180Z,1000.30
2023-03-30T07:32:00.201Z,1000.31
2023-03-30T07:33:00.477Z,1000.29
2023-03-30T07:34:00.125Z,1000.26
2023-03-30T07:35:00.101Z,1000.23
2023-03-30T07:36:00.377Z,1000.22
2023-03-30T07:37:01.205Z,1000.20
2023-03-30T07:38:03.185Z,1000.16
2023-03-30T07:39:00.187Z,1000.16
2023-03-30T07:40:00.253Z,1000.18
2023-03-30T07:41:00.048Z,1000.13
2023-03-30T07:41:59.997Z,1000.04
2023-03-30T07:43:00.049Z,1000.05
2023-03-30T07:44:00.017Z,1000.09
2023-03-30T07:44:59.973Z,1000.15
2023-03-30T07:46:00.018Z,1000.19
2023-03-30T07:46:59.992Z,1000.21
2023-03-30T07:48:00.082Z,1000.17
2023-03-30T07:48:59.978Z,1000.14
2023-03-30T07:50:00.749Z,1000.16
2023-03-30T07:50:59.955Z,1000.13
2023-03-30T07:51:59.938Z,1000.11
2023-03-30T07:53:00.010Z,1000.10
2023-03-30T07:53:59.932Z,1000.10
2023-03-30T07:54:59.882Z,1000.10
2023-03-30T07:55:59.961Z,1000.18
2023-03-30T07:56:59.932Z,1000.26
2023-03-30T07:58:00.835Z,1000.32
2023-03-30T07:59:01.848Z,1000.35
2023-03-30T07:59:59.814Z,1000.36
2023-03-30T08:00:59.820Z,1000.35
2023-03-30T08:01:59.832Z,1000.43
2023-03-30T08:02:59.865Z,1000.50
2023-03-30T08:03:59.853Z,1000.57
2023-03-30T08:04:59.936Z,1000.58
2023-03-30T08:05:59.801Z,1000.56
2023-03-30T08:06:59.970Z,1000.52
2023-03-30T08:07:59.780Z,1000.49
2023-03-30T08:08:59.742Z,1000.51
2023-03-30T08:09:59.732Z,1000.50
2023-03-30T08:10:59.718Z,1000.45
2023-03-30T08:11:59.765Z,1000.44
2023-03-30T08:12:59.727Z,1000.46
2023-03-30T08:13:59.666Z,1000.44
2023-03-30T08:14:59.674Z,1000.49
2023-03-30T08:15:59.707Z,1000.49
2023-03-30T08:16:59.870Z,1000.53
2023-03-30T08:17:59.762Z,1000.48
2023-03-30T08:18:59.680Z,1000.46
2023-03-30T08:19:59.608Z,1000.47
2023-03-30T08:20:59.614Z,1000.51
2023-03-30T08:21:59.695Z,1000.53
2023-03-30T08:22:59.670Z,1000.56
2023-03-30T08:23:59.605Z,1000.63
2023-03-30T08:25:00.564Z,1000.59
2023-03-30T08:25:59.574Z,1000.57
2023-03-30T08:26:59.580Z,1000.54
2023-03-30T08:27:59.838Z,1000.51
2023-03-30T08:28:59.525Z,1000.49
2023-03-30T08:29:59.680Z,1000.51
2023-03-30T08:30:59.535Z,1000.51
2023-03-30T08:31:59.607Z,1000.49
2023-03-30T08:32:59.609Z,1000.47
2023-03-30T08:33:59.492Z,1000.46
2023-03-30T08:34:59.543Z,1000.43
2023-03-30T08:35:59.624Z,1000.41
2023-03-30T08:37:00.133Z,1000.33
2023-03-30T08:37:59.488Z,1000.30
2023-03-30T08:38:59.508Z,1000.30
2023-03-30T08:39:59.425Z,1000.33
2023-03-30T08:40:59.437Z,1000.36
2023-03-30T08:41:59.414Z,1000.42
2023-03-30T08:42:59.429Z,1000.45
2023-03-30T08:43:59.390Z,1000.42
2023-03-30T08:44:59.417Z,1000.38
2023-03-30T08:45:59.514Z,1000.39
2023-03-30T08:46:59.400Z,1000.43
2023-03-30T08:47:59.566Z,1000.45
2023-03-30T08:48:59.370Z,1000.47
2023-03-30T08:49:59.479Z,1000.51
2023-03-30T08:50:59.332Z,1000.48
2023-03-30T08:52:01.220Z,1000.42
2023-03-30T08:52:59.326Z,1000.48
2023-03-30T08:53:59.306Z,1000.46
2023-03-30T08:54:59.329Z,1000.46
2023-03-30T08:55:59.281Z,1000.46
2023-03-30T08:56:59.375Z,1000.44
2023-03-30T08:57:59.404Z,1000.45
2023-03-30T08:58:59.252Z,1000.44
2023-03-30T08:59:59.352Z,1000.48
2023-03-30T09:00:59.278Z,1000.47
2023-03-30T09:01:59.343Z,1000.50
2023-03-30T09:02:59.202Z,1000.48
2023-03-30T09:03:59.389Z,1000.47
2023-03-30T09:04:59.216Z,1000.44
2023-03-30T09:05:59.178Z,1000.37
2023-03-30T09:06:59.221Z,1000.36
2023-03-30T09:07:59.180Z,1000.36
2023-03-30T09:08:59.183Z,1000.36
2023-03-30T09:09:59.228Z,1000.33
2023-03-30T09:10:59.138Z,1000.25
2023-03-30T09:11:59.526Z,1000.23
2023-03-30T09:12:59.121Z,1000.19
2023-03-30T09:13:59.129Z,1000.16
2023-03-30T09:14:59.121Z,1000.18
2023-03-30T09:15:59.101Z,1000.11
2023-03-30T09:16:59.352Z,1000.15
2023-03-30T09:17:59.109Z,1000.15
2023-03-30T09:18:59.064Z,1000.11
2023-03-30T09:19:59.088Z,1000.22
2023-03-30T09:20:59.067Z,1000.28
2023-03-30T09:21:59.167Z,1000.38
2023-03-30T09:22:59.148Z,1000.36
2023-03-30T09:23:59.123Z,1000.35
2023-03-30T09:24:59.018Z,1000.27
2023-03-30T09:26:01.323Z,1000.35
2023-03-30T09:26:59.031Z,1000.44
2023-03-30T09:27:58.954Z,1000.41
2023-03-30T09:28:59.019Z,1000.42
2023-03-30T09:29:58.936Z,1000.40
2023-03-30T09:30:58.965Z,1000.42
2023-03-30T09:31:58.948Z,1000.46
2023-03-30T09:32:59.061Z,1000.46
2023-03-30T09:33:58.905Z,1000.47
2023-03-30T09:34:58.929Z,1000.46
2023-03-30T09:35:59.049Z,1000.42
2023-03-30T09:36:58.914Z,1000.43
2023-03-30T09:37:58.920Z,1000.39
2023-03-30T09:38:58.933Z,1000.38
2023-03-30T09:39:58.893Z,1000.42
2023-03-30T09:40:58.905Z,1000.39
2023-03-30T09:41:58.812Z,1000.43
2023-03-30T09:42:58.805Z,1000.43
2023-03-30T09:43:59.025Z,1000.40
2023-03-30T09:44:58.794Z,1000.36
2023-03-30T09:45:58.858Z,1000.39
2023-03-30T09:46:58.859Z,1000.32
2023-03-30T09:47:58.803Z,1000.30
2023-03-30T09:48:58.775Z,1000.33
2023-03-30T09:49:58.818Z,1000.33
2023-03-30T09:50:58.767Z,1000.33
2023-03-30T09:51:58.818Z,1000.31
2023-03-30T09:52:58.950Z,1000.27
2023-03-30T09:53:58.798Z,1000.29
2023-03-30T09:54:58.950Z,1000.27
2023-03-30T09:55:58.989Z,1000.32
2023-03-30T09:56:58.923Z,1000.27
2023-03-30T09:57:58.677Z,1000.29
2023-03-30T09:58:58.752Z,1000.28
2023-03-30T09:59:58.686Z,1000.29
2023-03-30T10:00:58.696Z,1000.28
2023-03-30T10:01:58.743Z,1000.25
2023-03-30T10:02:58.742Z,1000.23
2023-03-30T10:03:59.070Z,1000.23
2023-03-30T10:04:58.765Z,1000.28
2023-03-30T10:05:58.589Z,1000.26
2023-03-30T10:07:04.353Z,1000.32
2023-03-30T10:07:58.628Z,1000.33
2023-03-30T10:08:58.542Z,1000.38
2023-03-30T10:09:58.849Z,1000.38
2023-03-30T10:10:58.525Z,1000.34
2023-03-30T10:11:58.717Z,1000.33
2023-03-30T10:12:58.686Z,1000.31
2023-03-30T10:13:58.584Z,1000.33
2023-03-30T10:14:58.524Z,1000.36
2023-03-30T10:15:58.591Z,1000.32
2023-03-30T10:16:58.554Z,1000.35
2023-03-30T10:17:58.553Z,1000.38
2023-03-30T10:18:58.604Z,1000.33
2023-03-30T10:20:11.095Z,1000.36
2023-03-30T10:20:58.418Z,1000.35
2023-03-30T10:21:58.500Z,1000.20
2023-03-30T10:22:58.469Z,1000.24
2023-03-30T10:23:58.409Z,1000.28
2023-03-30T10:24:58.465Z,1000.27
2023-03-30T10:25:58.381Z,1000.29
2023-03-30T10:26:58.373Z,1000.30
2023-03-30T10:27:58.349Z,1000.31
2023-03-30T10:28:58.363Z,1000.37
2023-03-30T10:29:58.379Z,1000.39
2023-03-30T10:30:58.646Z,1000.33
2023-03-30T10:31:58.323Z,1000.34
2023-03-30T10:32:58.391Z,1000.32
2023-03-30T10:33:58.327Z,1000.27
2023-03-30T10:34:58.287Z,1000.30
2023-03-30T10:35:58.317Z,1000.25
2023-03-30T10:36:58.337Z,1000.26
2023-03-30T10:37:58.476Z,1000.25
2023-03-30T10:38:58.312Z,1000.25
2023-03-30T10:39:58.280Z,1000.31
2023-03-30T10:40:58.267Z,1000.32
2023-03-30T10:42:00.065Z,1000.29
2023-03-30T10:42:58.264Z,1000.31
2023-03-30T10:43:58.275Z,1000.29
2023-03-30T10:44:58.210Z,1000.21
2023-03-30T10:46:06.171Z,1000.23
2023-03-30T10:46:58.189Z,1000.21
2023-03-30T10:48:00.112Z,1000.18
2023-03-30T10:48:58.327Z,1000.28
2023-03-30T10:49:58.202Z,1000.37
2023-03-30T10:50:58.160Z,1000.38
2023-03-30T10:51:58.118Z,1000.35
2023-03-30T10:52:59.626Z,1000.32
2023-03-30T10:53:59.717Z,1000.27
2023-03-30T10:54:58.082Z,1000.24
2023-03-30T10:55:58.085Z,1000.29
2023-03-30T10:56:58.153Z,1000.36
2023-03-30T10:57:58.130Z,1000.37
2023-03-30T10:58:58.132Z,1000.35
2023-03-30T10:59:59.989Z,1000.38
2023-03-30T11:00:58.316Z,1000.39
2023-03-30T11:01:58.189Z,1000.38
2023-03-30T11:02:58.941Z,1000.33
2023-03-30T11:03:59.794Z,1000.33
2023-03-30T11:04:58.119Z,1000.21
2023-03-30T11:05:58.013Z,1000.26
2023-03-30T11:06:57.984Z,1000.25
2023-03-30T11:07:57.976Z,1000.13
2023-03-30T11:08:57.966Z,1000.10
2023-03-30T11:09:58.036Z,1000.18
2023-03-30T11:10:58.018Z,1000.16
2023-03-30T11:11:57.955Z,1000.12
2023-03-30T11:12:57.901Z,1000.11
2023-03-30T11:13:57.914Z,1000.08
2023-03-30T11:14:57.912Z,1000.12
2023-03-30T11:15:57.914Z,1000.09
2023-03-30T11:16:57.906Z,1000.14
2023-03-30T11:17:58.870Z,1000.15
2023-03-30T11:18:57.922Z,1000.18
2023-03-30T11:19:57.932Z,1000.19
2023-03-30T11:20:57.896Z,1000.20
2023-03-30T11:21:57.830Z,1000.15
2023-03-30T11:22:57.894Z,1000.18
2023-03-30T11:23:57.888Z,1000.17
2023-03-30T11:24:57.894Z,1000.19
2023-03-30T11:25:57.873Z,1000.18
2023-03-30T11:26:57.853Z,1000.14
2023-03-30T11:27:57.724Z,1000.15
2023-03-30T11:28:57.739Z,1000.15
2023-03-30T11:29:57.705Z,1000.11
2023-03-30T11:30:57.728Z,1000.19
2023-03-30T11:31:57.793Z,1000.17
2023-03-30T11:32:57.837Z,1000.13
2023-03-30T11:33:57.738Z,1000.09
2023-03-30T11:34:57.704Z,1000.06
2023-03-30T11:35:57.758Z,1000.11
2023-03-30T11:36:57.774Z,1000.04
2023-03-30T11:37:57.723Z,1000.01
2023-03-30T11:38:57.627Z,1000.04
2023-03-30T11:39:57.647Z,1000.02
2023-03-30T11:40:57.690Z,999.98
2023-03-30T11:41:57.636Z,999.99
2023-03-30T11:42:57.662Z,999.91
2023-03-30T11:43:57.784Z,999.98
2023-03-30T11:44:57.556Z,1000.02
2023-03-30T11:45:57.728Z,1000.04
2023-03-30T11:46:58.065Z,1000.01
2023-03-30T11:47:57.592Z,1000.06
2023-03-30T11:48:57.534Z,1000.07
2023-03-30T11:49:57.585Z,1000.01
2023-03-30T11:50:57.527Z,1000.04
2023-03-30T11:51:57.574Z,1000.08
2023-03-30T11:52:57.532Z,1000.09
2023-03-30T11:53:57.612Z,1000.01
2023-03-30T11:55:03.566Z,1000.12
2023-03-30T11:55:57.482Z,1000.10
2023-03-30T11:56:57.572Z,1000.07
2023-03-30T11:57:57.449Z,1000.08
2023-03-30T11:58:57.463Z,1000.12
2023-03-30T11:59:57.558Z,1000.08
2023-03-30T12:00:57.414Z,1000.16
2023-03-30T12:01:57.421Z,1000.08
2023-03-30T12:02:57.506Z,1000.04
2023-03-30T12:03:57.533Z,1000.00
2023-03-30T12:04:57.559Z,1000.01
2023-03-30T12:05:57.379Z,1000.06
2023-03-30T12:06:57.378Z,1000.05
2023-03-30T12:07:57.423Z,1000.02